sensor_id;sensor_type;location;lat;lon;timestamp;P1;durP1;ratioP1;P2;durP2;ratioP2
72235;SDS011;60146;52.498;13.462;2023-04-07T00:00:53;15.07;;;6.23;;
72235;SDS011;60146;52.498;13.462;2023-04-07T00:03:18;13.47;;;6.37;;
72235;SDS011;60146;52.498;13.462;2023-04-07T00:05:46;14.33;;;5.97;;
72235;SDS011;60146;52.498;13.462;2023-04-07T00:08:12;12.73;;;6.03;;
72235;SDS011;60146;52.498;13.462;2023-04-07T00:10:40;11.33;;;6.30;;
72235;SDS011;60146;52.498;13.462;2023-04-07T00:13:09;16.07;;;6.60;;
72235;SDS011;60146;52.498;13.462;2023-04-07T00:15:44;12.10;;;6.10;;
72235;SDS011;60146;52.498;13.462;2023-04-07T00:18:09;14.90;;;6.13;;
72235;SDS011;60146;52.498;13.462;2023-04-07T00:20:35;16.73;;;6.33;;
72235;SDS011;60146;52.498;13.462;2023-04-07T00:23:00;11.37;;;5.47;;
72235;SDS011;60146;52.498;13.462;2023-04-07T00:25:25;11.67;;;5.73;;
72235;SDS011;60146;52.498;13.462;2023-04-07T00:27:51;11.23;;;5.37;;
72235;SDS011;60146;52.498;13.462;2023-04-07T00:30:16;10.90;;;5.63;;
72235;SDS011;60146;52.498;13.462;2023-04-07T00:32:41;11.20;;;5.23;;
72235;SDS011;60146;52.498;13.462;2023-04-07T00:35:07;12.30;;;5.37;;
72235;SDS011;60146;52.498;13.462;2023-04-07T00:37:34;12.67;;;5.77;;
72235;SDS011;60146;52.498;13.462;2023-04-07T00:39:59;10.80;;;5.10;;
72235;SDS011;60146;52.498;13.462;2023-04-07T00:42:25;8.13;;;4.23;;
72235;SDS011;60146;52.498;13.462;2023-04-07T00:44:50;10.43;;;4.43;;
72235;SDS011;60146;52.498;13.462;2023-04-07T00:47:15;13.07;;;4.63;;
72235;SDS011;60146;52.498;13.462;2023-04-07T00:49:41;12.07;;;4.47;;
72235;SDS011;60146;52.498;13.462;2023-04-07T00:52:07;10.77;;;4.60;;
72235;SDS011;60146;52.498;13.462;2023-04-07T00:54:35;13.00;;;5.03;;
72235;SDS011;60146;52.498;13.462;2023-04-07T01:00:23;10.87;;;4.80;;
72235;SDS011;60146;52.498;13.462;2023-04-07T01:02:52;13.03;;;5.53;;
72235;SDS011;60146;52.498;13.462;2023-04-07T01:05:41;11.57;;;4.78;;
72235;SDS011;60146;52.498;13.462;2023-04-07T01:08:28;10.02;;;4.43;;
72235;SDS011;60146;52.498;13.462;2023-04-07T01:13:54;8.27;;;4.43;;
72235;SDS011;60146;52.498;13.462;2023-04-07T01:19:00;10.70;;;4.60;;
72235;SDS011;60146;52.498;13.462;2023-04-07T01:21:39;12.93;;;5.78;;
72235;SDS011;60146;52.498;13.462;2023-04-07T01:26:36;11.43;;;4.40;;
72235;SDS011;60146;52.498;13.462;2023-04-07T01:29:36;11.93;;;4.30;;
72235;SDS011;60146;52.498;13.462;2023-04-07T01:31:59;10.20;;;4.70;;
72235;SDS011;60146;52.498;13.462;2023-04-07T01:34:28;10.27;;;4.40;;
72235;SDS011;60146;52.498;13.462;2023-04-07T01:36:55;11.07;;;4.60;;
72235;SDS011;60146;52.498;13.462;2023-04-07T01:39:24;10.07;;;4.20;;
72235;SDS011;60146;52.498;13.462;2023-04-07T01:41:51;9.07;;;4.47;;
72235;SDS011;60146;52.498;13.462;2023-04-07T01:44:18;10.33;;;4.53;;
72235;SDS011;60146;52.498;13.462;2023-04-07T01:46:47;10.27;;;4.90;;
72235;SDS011;60146;52.498;13.462;2023-04-07T01:49:15;14.23;;;5.83;;
72235;SDS011;60146;52.498;13.462;2023-04-07T01:51:41;11.10;;;5.00;;
72235;SDS011;60146;52.498;13.462;2023-04-07T01:54:07;11.33;;;5.47;;
72235;SDS011;60146;52.498;13.462;2023-04-07T01:56:33;9.47;;;4.77;;
72235;SDS011;60146;52.498;13.462;2023-04-07T01:58:59;9.97;;;4.47;;
72235;SDS011;60146;52.498;13.462;2023-04-07T02:01:24;9.57;;;4.60;;
72235;SDS011;60146;52.498;13.462;2023-04-07T02:06:21;11.43;;;4.88;;
72235;SDS011;60146;52.498;13.462;2023-04-07T02:08:58;7.93;;;4.53;;
72235;SDS011;60146;52.498;13.462;2023-04-07T02:11:26;10.40;;;4.70;;
72235;SDS011;60146;52.498;13.462;2023-04-07T02:13:54;12.17;;;5.07;;
72235;SDS011;60146;52.498;13.462;2023-04-07T02:16:20;14.60;;;4.80;;
72235;SDS011;60146;52.498;13.462;2023-04-07T02:18:46;8.77;;;4.37;;
72235;SDS011;60146;52.498;13.462;2023-04-07T02:21:13;10.83;;;4.57;;
72235;SDS011;60146;52.498;13.462;2023-04-07T02:23:40;11.63;;;4.30;;
72235;SDS011;60146;52.498;13.462;2023-04-07T02:26:05;14.70;;;5.17;;
72235;SDS011;60146;52.498;13.462;2023-04-07T02:28:31;13.60;;;4.70;;
72235;SDS011;60146;52.498;13.462;2023-04-07T02:30:56;11.20;;;4.60;;
72235;SDS011;60146;52.498;13.462;2023-04-07T02:33:22;14.10;;;5.20;;
72235;SDS011;60146;52.498;13.462;2023-04-07T02:35:47;11.47;;;4.97;;
72235;SDS011;60146;52.498;13.462;2023-04-07T02:38:12;11.23;;;4.87;;
72235;SDS011;60146;52.498;13.462;2023-04-07T02:40:38;12.13;;;4.97;;
72235;SDS011;60146;52.498;13.462;2023-04-07T02:43:03;10.53;;;4.83;;
72235;SDS011;60146;52.498;13.462;2023-04-07T02:45:29;10.20;;;4.80;;
72235;SDS011;60146;52.498;13.462;2023-04-07T02:47:55;9.63;;;4.40;;
72235;SDS011;60146;52.498;13.462;2023-04-07T02:50:20;13.27;;;4.80;;
72235;SDS011;60146;52.498;13.462;2023-04-07T02:52:46;9.60;;;4.37;;
72235;SDS011;60146;52.498;13.462;2023-04-07T02:55:11;8.60;;;4.30;;
72235;SDS011;60146;52.498;13.462;2023-04-07T02:57:36;9.73;;;4.60;;
72235;SDS011;60146;52.498;13.462;2023-04-07T03:00:02;10.00;;;4.63;;
72235;SDS011;60146;52.498;13.462;2023-04-07T03:02:32;12.18;;;4.40;;
72235;SDS011;60146;52.498;13.462;2023-04-07T03:04:57;11.07;;;4.70;;
72235;SDS011;60146;52.498;13.462;2023-04-07T03:07:22;8.80;;;4.87;;
72235;SDS011;60146;52.498;13.462;2023-04-07T03:09:48;8.77;;;4.13;;
72235;SDS011;60146;52.498;13.462;2023-04-07T03:12:13;10.37;;;4.70;;
72235;SDS011;60146;52.498;13.462;2023-04-07T03:14:38;9.03;;;4.00;;
72235;SDS011;60146;52.498;13.462;2023-04-07T03:17:04;8.17;;;4.20;;
72235;SDS011;60146;52.498;13.462;2023-04-07T03:19:32;9.30;;;4.43;;
72235;SDS011;60146;52.498;13.462;2023-04-07T03:22:03;10.13;;;4.67;;
72235;SDS011;60146;52.498;13.462;2023-04-07T03:24:32;10.27;;;4.73;;
72235;SDS011;60146;52.498;13.462;2023-04-07T03:26:57;10.03;;;4.33;;
72235;SDS011;60146;52.498;13.462;2023-04-07T03:29:22;10.30;;;4.30;;
72235;SDS011;60146;52.498;13.462;2023-04-07T03:31:48;9.80;;;4.47;;
72235;SDS011;60146;52.498;13.462;2023-04-07T03:34:13;9.03;;;4.43;;
72235;SDS011;60146;52.498;13.462;2023-04-07T03:36:39;8.97;;;4.47;;
72235;SDS011;60146;52.498;13.462;2023-04-07T03:39:04;10.23;;;5.00;;
72235;SDS011;60146;52.498;13.462;2023-04-07T03:41:30;10.57;;;4.50;;
72235;SDS011;60146;52.498;13.462;2023-04-07T03:43:56;10.33;;;4.50;;
72235;SDS011;60146;52.498;13.462;2023-04-07T03:46:21;10.63;;;4.60;;
72235;SDS011;60146;52.498;13.462;2023-04-07T03:48:47;9.03;;;4.50;;
72235;SDS011;60146;52.498;13.462;2023-04-07T03:51:13;11.90;;;5.07;;
72235;SDS011;60146;52.498;13.462;2023-04-07T03:53:39;8.43;;;4.23;;
72235;SDS011;60146;52.498;13.462;2023-04-07T03:56:04;12.70;;;4.60;;
72235;SDS011;60146;52.498;13.462;2023-04-07T03:58:30;11.10;;;4.90;;
72235;SDS011;60146;52.498;13.462;2023-04-07T04:00:55;7.90;;;4.13;;
72235;SDS011;60146;52.498;13.462;2023-04-07T04:03:20;8.80;;;4.43;;
72235;SDS011;60146;52.498;13.462;2023-04-07T04:05:46;10.03;;;4.37;;
72235;SDS011;60146;52.498;13.462;2023-04-07T04:08:11;8.27;;;4.50;;
72235;SDS011;60146;52.498;13.462;2023-04-07T04:10:36;10.47;;;4.67;;
72235;SDS011;60146;52.498;13.462;2023-04-07T04:13:02;13.53;;;4.70;;
72235;SDS011;60146;52.498;13.462;2023-04-07T04:15:30;11.47;;;4.80;;
72235;SDS011;60146;52.498;13.462;2023-04-07T04:17:56;10.10;;;4.80;;
72235;SDS011;60146;52.498;13.462;2023-04-07T04:20:21;12.53;;;4.67;;
72235;SDS011;60146;52.498;13.462;2023-04-07T04:22:46;12.37;;;5.57;;
72235;SDS011;60146;52.498;13.462;2023-04-07T04:25:12;13.87;;;4.93;;
72235;SDS011;60146;52.498;13.462;2023-04-07T04:27:37;12.23;;;5.40;;
72235;SDS011;60146;52.498;13.462;2023-04-07T04:30:03;15.70;;;4.80;;
72235;SDS011;60146;52.498;13.462;2023-04-07T04:32:28;12.20;;;4.50;;
72235;SDS011;60146;52.498;13.462;2023-04-07T04:34:54;13.30;;;5.17;;
72235;SDS011;60146;52.498;13.462;2023-04-07T04:37:19;12.07;;;4.90;;
72235;SDS011;60146;52.498;13.462;2023-04-07T04:39:44;11.63;;;5.30;;
72235;SDS011;60146;52.498;13.462;2023-04-07T04:42:10;11.57;;;4.80;;
72235;SDS011;60146;52.498;13.462;2023-04-07T04:44:35;13.17;;;5.00;;
72235;SDS011;60146;52.498;13.462;2023-04-07T04:47:01;11.63;;;4.73;;
72235;SDS011;60146;52.498;13.462;2023-04-07T04:49:26;12.37;;;4.93;;
72235;SDS011;60146;52.498;13.462;2023-04-07T04:51:51;9.87;;;4.20;;
72235;SDS011;60146;52.498;13.462;2023-04-07T04:54:17;8.63;;;4.40;;
72235;SDS011;60146;52.498;13.462;2023-04-07T04:56:43;9.10;;;4.37;;
72235;SDS011;60146;52.498;13.462;2023-04-07T04:59:08;13.87;;;4.73;;
72235;SDS011;60146;52.498;13.462;2023-04-07T05:01:34;10.63;;;4.43;;
72235;SDS011;60146;52.498;13.462;2023-04-07T05:03:59;8.97;;;4.20;;
72235;SDS011;60146;52.498;13.462;2023-04-07T05:06:25;10.23;;;4.87;;
72235;SDS011;60146;52.498;13.462;2023-04-07T05:08:51;11.77;;;5.13;;
72235;SDS011;60146;52.498;13.462;2023-04-07T05:11:17;8.93;;;4.30;;
72235;SDS011;60146;52.498;13.462;2023-04-07T05:13:42;9.90;;;4.87;;
72235;SDS011;60146;52.498;13.462;2023-04-07T05:16:08;8.87;;;4.70;;
72235;SDS011;60146;52.498;13.462;2023-04-07T05:18:33;11.40;;;4.57;;
72235;SDS011;60146;52.498;13.462;2023-04-07T05:20:58;9.20;;;3.90;;
72235;SDS011;60146;52.498;13.462;2023-04-07T05:23:25;12.50;;;5.27;;
72235;SDS011;60146;52.498;13.462;2023-04-07T05:25:51;10.50;;;4.57;;
72235;SDS011;60146;52.498;13.462;2023-04-07T05:28:16;13.23;;;4.60;;
72235;SDS011;60146;52.498;13.462;2023-04-07T05:30:41;8.50;;;4.23;;
72235;SDS011;60146;52.498;13.462;2023-04-07T05:33:07;10.90;;;4.57;;
72235;SDS011;60146;52.498;13.462;2023-04-07T05:35:32;11.13;;;4.87;;
72235;SDS011;60146;52.498;13.462;2023-04-07T05:37:58;10.87;;;5.53;;
72235;SDS011;60146;52.498;13.462;2023-04-07T05:40:23;10.43;;;5.40;;
72235;SDS011;60146;52.498;13.462;2023-04-07T05:42:48;11.60;;;5.17;;
72235;SDS011;60146;52.498;13.462;2023-04-07T05:45:14;13.23;;;5.47;;
72235;SDS011;60146;52.498;13.462;2023-04-07T05:47:40;10.47;;;5.07;;
72235;SDS011;60146;52.498;13.462;2023-04-07T05:50:05;11.47;;;5.10;;
72235;SDS011;60146;52.498;13.462;2023-04-07T05:52:31;11.37;;;4.73;;
72235;SDS011;60146;52.498;13.462;2023-04-07T05:54:56;9.43;;;4.57;;
72235;SDS011;60146;52.498;13.462;2023-04-07T05:57:21;10.80;;;5.20;;
72235;SDS011;60146;52.498;13.462;2023-04-07T05:59:47;9.83;;;4.93;;
72235;SDS011;60146;52.498;13.462;2023-04-07T06:02:12;12.23;;;5.20;;
72235;SDS011;60146;52.498;13.462;2023-04-07T06:04:38;10.97;;;5.10;;
72235;SDS011;60146;52.498;13.462;2023-04-07T06:07:04;11.67;;;5.00;;
72235;SDS011;60146;52.498;13.462;2023-04-07T06:09:29;13.77;;;5.63;;
72235;SDS011;60146;52.498;13.462;2023-04-07T06:11:55;12.07;;;5.23;;
72235;SDS011;60146;52.498;13.462;2023-04-07T06:14:20;11.70;;;5.30;;
72235;SDS011;60146;52.498;13.462;2023-04-07T06:16:46;10.43;;;5.27;;
72235;SDS011;60146;52.498;13.462;2023-04-07T06:19:11;9.17;;;5.37;;
72235;SDS011;60146;52.498;13.462;2023-04-07T06:21:37;9.93;;;5.33;;
72235;SDS011;60146;52.498;13.462;2023-04-07T06:24:03;12.37;;;5.70;;
72235;SDS011;60146;52.498;13.462;2023-04-07T06:26:29;11.97;;;5.50;;
72235;SDS011;60146;52.498;13.462;2023-04-07T06:28:55;13.97;;;5.60;;
72235;SDS011;60146;52.498;13.462;2023-04-07T06:31:25;12.73;;;5.70;;
72235;SDS011;60146;52.498;13.462;2023-04-07T06:33:51;10.43;;;5.60;;
72235;SDS011;60146;52.498;13.462;2023-04-07T06:36:17;10.70;;;5.50;;
72235;SDS011;60146;52.498;13.462;2023-04-07T06:38:42;12.50;;;5.50;;
72235;SDS011;60146;52.498;13.462;2023-04-07T06:41:07;16.13;;;5.50;;
72235;SDS011;60146;52.498;13.462;2023-04-07T06:43:36;12.83;;;6.10;;
72235;SDS011;60146;52.498;13.462;2023-04-07T06:46:02;15.60;;;6.10;;
72235;SDS011;60146;52.498;13.462;2023-04-07T06:48:27;13.27;;;5.60;;
72235;SDS011;60146;52.498;13.462;2023-04-07T06:50:52;12.93;;;5.63;;
72235;SDS011;60146;52.498;13.462;2023-04-07T06:53:18;11.30;;;5.57;;
72235;SDS011;60146;52.498;13.462;2023-04-07T06:55:43;15.20;;;5.30;;
72235;SDS011;60146;52.498;13.462;2023-04-07T06:58:08;13.73;;;5.47;;
72235;SDS011;60146;52.498;13.462;2023-04-07T07:00:34;13.03;;;5.57;;
72235;SDS011;60146;52.498;13.462;2023-04-07T07:03:00;10.77;;;5.27;;
72235;SDS011;60146;52.498;13.462;2023-04-07T07:05:25;14.07;;;5.77;;
72235;SDS011;60146;52.498;13.462;2023-04-07T07:07:51;11.13;;;5.50;;
72235;SDS011;60146;52.498;13.462;2023-04-07T07:10:16;12.60;;;5.80;;
72235;SDS011;60146;52.498;13.462;2023-04-07T07:12:42;13.37;;;5.70;;
72235;SDS011;60146;52.498;13.462;2023-04-07T07:15:07;10.33;;;5.40;;
72235;SDS011;60146;52.498;13.462;2023-04-07T07:17:33;12.47;;;5.67;;
72235;SDS011;60146;52.498;13.462;2023-04-07T07:19:58;12.73;;;5.90;;
72235;SDS011;60146;52.498;13.462;2023-04-07T07:22:23;11.40;;;5.47;;
72235;SDS011;60146;52.498;13.462;2023-04-07T07:24:49;14.90;;;6.07;;
72235;SDS011;60146;52.498;13.462;2023-04-07T07:27:15;12.93;;;5.20;;
72235;SDS011;60146;52.498;13.462;2023-04-07T07:29:40;9.20;;;4.63;;
72235;SDS011;60146;52.498;13.462;2023-04-07T07:32:06;10.87;;;5.17;;
72235;SDS011;60146;52.498;13.462;2023-04-07T07:34:31;11.13;;;5.03;;
72235;SDS011;60146;52.498;13.462;2023-04-07T07:36:57;10.63;;;4.80;;
72235;SDS011;60146;52.498;13.462;2023-04-07T07:39:23;9.43;;;4.60;;
72235;SDS011;60146;52.498;13.462;2023-04-07T07:41:49;9.57;;;4.87;;
72235;SDS011;60146;52.498;13.462;2023-04-07T07:44:15;8.17;;;4.20;;
72235;SDS011;60146;52.498;13.462;2023-04-07T07:46:40;9.13;;;4.43;;
72235;SDS011;60146;52.498;13.462;2023-04-07T07:49:05;9.63;;;4.40;;
72235;SDS011;60146;52.498;13.462;2023-04-07T07:51:31;11.13;;;4.27;;
72235;SDS011;60146;52.498;13.462;2023-04-07T07:53:56;8.30;;;3.83;;
72235;SDS011;60146;52.498;13.462;2023-04-07T07:56:21;10.43;;;4.27;;
72235;SDS011;60146;52.498;13.462;2023-04-07T07:58:47;9.73;;;4.70;;
72235;SDS011;60146;52.498;13.462;2023-04-07T08:01:13;8.70;;;4.03;;
72235;SDS011;60146;52.498;13.462;2023-04-07T08:03:38;8.77;;;3.77;;
72235;SDS011;60146;52.498;13.462;2023-04-07T08:06:04;7.70;;;3.97;;
72235;SDS011;60146;52.498;13.462;2023-04-07T08:08:30;6.53;;;3.43;;
72235;SDS011;60146;52.498;13.462;2023-04-07T08:10:55;7.77;;;3.57;;
72235;SDS011;60146;52.498;13.462;2023-04-07T08:13:21;10.67;;;4.23;;
72235;SDS011;60146;52.498;13.462;2023-04-07T08:15:46;8.93;;;3.90;;
72235;SDS011;60146;52.498;13.462;2023-04-07T08:18:12;8.47;;;3.83;;
72235;SDS011;60146;52.498;13.462;2023-04-07T08:20:37;8.77;;;4.07;;
72235;SDS011;60146;52.498;13.462;2023-04-07T08:23:02;7.77;;;3.90;;
72235;SDS011;60146;52.498;13.462;2023-04-07T08:25:28;11.20;;;3.67;;
72235;SDS011;60146;52.498;13.462;2023-04-07T08:27:53;8.23;;;3.80;;
72235;SDS011;60146;52.498;13.462;2023-04-07T08:30:19;8.63;;;4.10;;
72235;SDS011;60146;52.498;13.462;2023-04-07T08:32:46;8.97;;;3.97;;
72235;SDS011;60146;52.498;13.462;2023-04-07T08:35:11;7.50;;;4.20;;
72235;SDS011;60146;52.498;13.462;2023-04-07T08:37:37;10.73;;;4.10;;
72235;SDS011;60146;52.498;13.462;2023-04-07T08:40:04;6.40;;;3.77;;
72235;SDS011;60146;52.498;13.462;2023-04-07T08:42:30;9.50;;;4.53;;
72235;SDS011;60146;52.498;13.462;2023-04-07T08:44:58;7.57;;;3.87;;
72235;SDS011;60146;52.498;13.462;2023-04-07T08:49:55;8.10;;;3.90;;
72235;SDS011;60146;52.498;13.462;2023-04-07T08:52:26;7.18;;;3.58;;
72235;SDS011;60146;52.498;13.462;2023-04-07T08:54:57;9.63;;;4.10;;
72235;SDS011;60146;52.498;13.462;2023-04-07T08:57:27;7.27;;;3.73;;
72235;SDS011;60146;52.498;13.462;2023-04-07T08:59:55;6.53;;;3.33;;
72235;SDS011;60146;52.498;13.462;2023-04-07T09:02:22;10.03;;;3.63;;
72235;SDS011;60146;52.498;13.462;2023-04-07T09:04:47;8.67;;;3.30;;
72235;SDS011;60146;52.498;13.462;2023-04-07T09:07:13;6.93;;;3.17;;
72235;SDS011;60146;52.498;13.462;2023-04-07T09:09:38;5.53;;;2.97;;
72235;SDS011;60146;52.498;13.462;2023-04-07T09:12:05;6.90;;;3.30;;
72235;SDS011;60146;52.498;13.462;2023-04-07T09:14:30;13.83;;;5.90;;
72235;SDS011;60146;52.498;13.462;2023-04-07T09:16:55;11.67;;;3.20;;
72235;SDS011;60146;52.498;13.462;2023-04-07T09:19:21;7.43;;;3.33;;
72235;SDS011;60146;52.498;13.462;2023-04-07T09:21:50;9.63;;;3.90;;
72235;SDS011;60146;52.498;13.462;2023-04-07T09:24:23;10.00;;;3.87;;
72235;SDS011;60146;52.498;13.462;2023-04-07T09:29:39;9.50;;;3.87;;
72235;SDS011;60146;52.498;13.462;2023-04-07T09:32:06;10.20;;;4.43;;
72235;SDS011;60146;52.498;13.462;2023-04-07T09:34:35;10.73;;;4.10;;
72235;SDS011;60146;52.498;13.462;2023-04-07T09:37:03;7.43;;;3.83;;
72235;SDS011;60146;52.498;13.462;2023-04-07T09:39:29;9.37;;;3.60;;
72235;SDS011;60146;52.498;13.462;2023-04-07T09:41:55;8.03;;;3.70;;
72235;SDS011;60146;52.498;13.462;2023-04-07T09:44:22;8.37;;;4.10;;
72235;SDS011;60146;52.498;13.462;2023-04-07T09:46:55;7.53;;;3.90;;
72235;SDS011;60146;52.498;13.462;2023-04-07T09:49:22;9.13;;;4.03;;
72235;SDS011;60146;52.498;13.462;2023-04-07T09:51:55;9.93;;;4.20;;
72235;SDS011;60146;52.498;13.462;2023-04-07T09:54:32;12.67;;;4.20;;
72235;SDS011;60146;52.498;13.462;2023-04-07T09:57:02;8.23;;;3.80;;
72235;SDS011;60146;52.498;13.462;2023-04-07T09:59:32;7.95;;;4.05;;
72235;SDS011;60146;52.498;13.462;2023-04-07T10:01:58;7.83;;;4.13;;
72235;SDS011;60146;52.498;13.462;2023-04-07T10:04:24;12.40;;;4.00;;
72235;SDS011;60146;52.498;13.462;2023-04-07T10:06:51;8.47;;;3.80;;
72235;SDS011;60146;52.498;13.462;2023-04-07T10:09:17;6.90;;;2.80;;
72235;SDS011;60146;52.498;13.462;2023-04-07T10:11:43;5.40;;;2.90;;
72235;SDS011;60146;52.498;13.462;2023-04-07T10:14:09;5.43;;;2.67;;
72235;SDS011;60146;52.498;13.462;2023-04-07T10:16:38;11.07;;;3.07;;
72235;SDS011;60146;52.498;13.462;2023-04-07T10:19:06;9.07;;;2.57;;
72235;SDS011;60146;52.498;13.462;2023-04-07T10:21:33;7.97;;;2.97;;
72235;SDS011;60146;52.498;13.462;2023-04-07T10:24:08;12.10;;;2.92;;
72235;SDS011;60146;52.498;13.462;2023-04-07T10:26:56;5.65;;;2.78;;
72235;SDS011;60146;52.498;13.462;2023-04-07T10:29:25;5.77;;;3.17;;
72235;SDS011;60146;52.498;13.462;2023-04-07T10:31:55;6.63;;;3.25;;
72235;SDS011;60146;52.498;13.462;2023-04-07T10:37:23;5.97;;;2.80;;
72235;SDS011;60146;52.498;13.462;2023-04-07T10:39:50;6.97;;;2.93;;
72235;SDS011;60146;52.498;13.462;2023-04-07T10:48:14;5.37;;;2.67;;
72235;SDS011;60146;52.498;13.462;2023-04-07T10:50:40;5.20;;;2.90;;
72235;SDS011;60146;52.498;13.462;2023-04-07T10:53:10;6.80;;;2.63;;
72235;SDS011;60146;52.498;13.462;2023-04-07T10:58:16;5.53;;;2.60;;
72235;SDS011;60146;52.498;13.462;2023-04-07T11:06:39;6.27;;;3.30;;
72235;SDS011;60146;52.498;13.462;2023-04-07T11:09:17;7.13;;;3.00;;
72235;SDS011;60146;52.498;13.462;2023-04-07T11:11:44;7.43;;;3.30;;
72235;SDS011;60146;52.498;13.462;2023-04-07T11:14:11;7.20;;;3.50;;
72235;SDS011;60146;52.498;13.462;2023-04-07T11:16:58;7.43;;;3.10;;
72235;SDS011;60146;52.498;13.462;2023-04-07T11:19:25;7.20;;;3.47;;
72235;SDS011;60146;52.498;13.462;2023-04-07T11:22:12;9.37;;;3.60;;
72235;SDS011;60146;52.498;13.462;2023-04-07T11:24:40;5.47;;;3.10;;
72235;SDS011;60146;52.498;13.462;2023-04-07T11:27:08;9.10;;;4.40;;
72235;SDS011;60146;52.498;13.462;2023-04-07T11:29:36;9.47;;;4.20;;
72235;SDS011;60146;52.498;13.462;2023-04-07T11:32:02;7.70;;;3.57;;
72235;SDS011;60146;52.498;13.462;2023-04-07T11:34:32;10.53;;;5.13;;
72235;SDS011;60146;52.498;13.462;2023-04-07T11:37:17;9.63;;;4.80;;
72235;SDS011;60146;52.498;13.462;2023-04-07T11:39:56;10.53;;;5.53;;
72235;SDS011;60146;52.498;13.462;2023-04-07T11:42:32;14.43;;;6.33;;
72235;SDS011;60146;52.498;13.462;2023-04-07T11:44:59;16.30;;;7.73;;
72235;SDS011;60146;52.498;13.462;2023-04-07T11:47:37;17.40;;;9.37;;
72235;SDS011;60146;52.498;13.462;2023-04-07T11:50:04;16.10;;;8.17;;
72235;SDS011;60146;52.498;13.462;2023-04-07T11:52:43;13.97;;;7.57;;
72235;SDS011;60146;52.498;13.462;2023-04-07T11:55:19;15.65;;;7.72;;
72235;SDS011;60146;52.498;13.462;2023-04-07T11:57:45;11.60;;;6.20;;
72235;SDS011;60146;52.498;13.462;2023-04-07T12:00:12;12.53;;;6.67;;
72235;SDS011;60146;52.498;13.462;2023-04-07T12:02:38;12.23;;;6.47;;
72235;SDS011;60146;52.498;13.462;2023-04-07T12:05:04;12.03;;;5.87;;
72235;SDS011;60146;52.498;13.462;2023-04-07T12:07:30;10.40;;;5.40;;
72235;SDS011;60146;52.498;13.462;2023-04-07T12:09:56;10.30;;;5.27;;
72235;SDS011;60146;52.498;13.462;2023-04-07T12:12:25;11.30;;;4.93;;
72235;SDS011;60146;52.498;13.462;2023-04-07T12:14:52;9.63;;;4.60;;
72235;SDS011;60146;52.498;13.462;2023-04-07T12:17:21;8.80;;;4.70;;
72235;SDS011;60146;52.498;13.462;2023-04-07T12:19:47;8.32;;;4.18;;
72235;SDS011;60146;52.498;13.462;2023-04-07T12:22:13;9.60;;;4.50;;
72235;SDS011;60146;52.498;13.462;2023-04-07T12:24:38;9.20;;;4.43;;
72235;SDS011;60146;52.498;13.462;2023-04-07T12:27:03;10.60;;;5.10;;
72235;SDS011;60146;52.498;13.462;2023-04-07T12:29:29;13.30;;;4.90;;
72235;SDS011;60146;52.498;13.462;2023-04-07T12:31:54;11.13;;;5.10;;
72235;SDS011;60146;52.498;13.462;2023-04-07T12:34:20;10.83;;;4.90;;
72235;SDS011;60146;52.498;13.462;2023-04-07T12:36:46;12.00;;;5.00;;
72235;SDS011;60146;52.498;13.462;2023-04-07T12:39:12;14.00;;;5.10;;
72235;SDS011;60146;52.498;13.462;2023-04-07T12:41:37;12.97;;;5.77;;
72235;SDS011;60146;52.498;13.462;2023-04-07T12:44:03;14.73;;;5.83;;
72235;SDS011;60146;52.498;13.462;2023-04-07T12:46:29;15.57;;;6.47;;
72235;SDS011;60146;52.498;13.462;2023-04-07T12:48:54;11.83;;;5.87;;
72235;SDS011;60146;52.498;13.462;2023-04-07T12:51:20;10.77;;;5.23;;
72235;SDS011;60146;52.498;13.462;2023-04-07T12:53:46;11.80;;;5.33;;
72235;SDS011;60146;52.498;13.462;2023-04-07T12:56:12;12.43;;;5.10;;
72235;SDS011;60146;52.498;13.462;2023-04-07T12:58:38;9.67;;;4.30;;
72235;SDS011;60146;52.498;13.462;2023-04-07T13:01:04;11.73;;;4.67;;
72235;SDS011;60146;52.498;13.462;2023-04-07T13:03:30;9.00;;;3.67;;
72235;SDS011;60146;52.498;13.462;2023-04-07T13:05:55;9.53;;;4.33;;
72235;SDS011;60146;52.498;13.462;2023-04-07T13:08:25;8.38;;;3.72;;
72235;SDS011;60146;52.498;13.462;2023-04-07T13:10:51;8.03;;;3.40;;
72235;SDS011;60146;52.498;13.462;2023-04-07T13:13:16;6.90;;;3.10;;
72235;SDS011;60146;52.498;13.462;2023-04-07T13:15:42;9.00;;;3.60;;
72235;SDS011;60146;52.498;13.462;2023-04-07T13:18:07;7.27;;;3.37;;
72235;SDS011;60146;52.498;13.462;2023-04-07T13:20:33;5.70;;;2.90;;
72235;SDS011;60146;52.498;13.462;2023-04-07T13:22:58;7.27;;;2.93;;
72235;SDS011;60146;52.498;13.462;2023-04-07T13:25:23;9.40;;;3.80;;
72235;SDS011;60146;52.498;13.462;2023-04-07T13:27:49;7.23;;;3.40;;
72235;SDS011;60146;52.498;13.462;2023-04-07T13:30:14;5.13;;;2.67;;
72235;SDS011;60146;52.498;13.462;2023-04-07T13:32:40;5.17;;;2.73;;
72235;SDS011;60146;52.498;13.462;2023-04-07T13:35:06;4.77;;;2.50;;
72235;SDS011;60146;52.498;13.462;2023-04-07T13:37:31;5.20;;;2.90;;
72235;SDS011;60146;52.498;13.462;2023-04-07T13:39:57;7.10;;;3.10;;
72235;SDS011;60146;52.498;13.462;2023-04-07T13:42:22;7.03;;;3.10;;
72235;SDS011;60146;52.498;13.462;2023-04-07T13:44:48;5.30;;;2.70;;
72235;SDS011;60146;52.498;13.462;2023-04-07T13:47:14;6.77;;;2.80;;
72235;SDS011;60146;52.498;13.462;2023-04-07T13:49:46;5.53;;;3.20;;
72235;SDS011;60146;52.498;13.462;2023-04-07T13:52:12;7.70;;;3.27;;
72235;SDS011;60146;52.498;13.462;2023-04-07T13:54:38;7.33;;;3.40;;
72235;SDS011;60146;52.498;13.462;2023-04-07T13:57:04;6.30;;;2.93;;
72235;SDS011;60146;52.498;13.462;2023-04-07T13:59:29;7.10;;;3.00;;
72235;SDS011;60146;52.498;13.462;2023-04-07T14:01:55;7.37;;;3.07;;
72235;SDS011;60146;52.498;13.462;2023-04-07T14:04:20;7.23;;;3.60;;
72235;SDS011;60146;52.498;13.462;2023-04-07T14:06:46;5.30;;;2.57;;
72235;SDS011;60146;52.498;13.462;2023-04-07T14:09:12;7.10;;;3.00;;
72235;SDS011;60146;52.498;13.462;2023-04-07T14:11:37;6.23;;;3.10;;
72235;SDS011;60146;52.498;13.462;2023-04-07T14:14:02;6.63;;;3.13;;
72235;SDS011;60146;52.498;13.462;2023-04-07T14:16:28;9.13;;;3.17;;
72235;SDS011;60146;52.498;13.462;2023-04-07T14:18:54;8.33;;;3.60;;
72235;SDS011;60146;52.498;13.462;2023-04-07T14:21:20;5.47;;;3.10;;
72235;SDS011;60146;52.498;13.462;2023-04-07T14:23:45;7.63;;;3.23;;
72235;SDS011;60146;52.498;13.462;2023-04-07T14:26:11;6.00;;;3.17;;
72235;SDS011;60146;52.498;13.462;2023-04-07T14:28:37;6.80;;;2.77;;
72235;SDS011;60146;52.498;13.462;2023-04-07T14:31:03;4.43;;;2.57;;
72235;SDS011;60146;52.498;13.462;2023-04-07T14:33:28;5.90;;;3.07;;
72235;SDS011;60146;52.498;13.462;2023-04-07T14:35:54;6.23;;;2.97;;
72235;SDS011;60146;52.498;13.462;2023-04-07T14:38:20;5.33;;;2.30;;
72235;SDS011;60146;52.498;13.462;2023-04-07T14:40:50;6.28;;;2.63;;
72235;SDS011;60146;52.498;13.462;2023-04-07T14:43:16;5.10;;;2.63;;
72235;SDS011;60146;52.498;13.462;2023-04-07T14:45:41;5.90;;;2.63;;
72235;SDS011;60146;52.498;13.462;2023-04-07T14:48:07;6.97;;;2.80;;
72235;SDS011;60146;52.498;13.462;2023-04-07T14:50:33;4.83;;;2.73;;
72235;SDS011;60146;52.498;13.462;2023-04-07T14:52:58;5.33;;;2.77;;
72235;SDS011;60146;52.498;13.462;2023-04-07T14:55:24;5.97;;;2.93;;
72235;SDS011;60146;52.498;13.462;2023-04-07T14:57:50;4.83;;;2.67;;
72235;SDS011;60146;52.498;13.462;2023-04-07T15:00:15;3.93;;;2.50;;
72235;SDS011;60146;52.498;13.462;2023-04-07T15:02:41;5.30;;;2.90;;